Weather reports worldwide

Advertisment
Passo Rolle, Italy (16021): temperature & dewpoint: 23.09.2020 03:00:00 - 29.09.2020 03:00:00 (CEST)Passo Rolle, Italy (16021): wind speed: 23.09.2020 03:00:00 - 29.09.2020 03:00:00 (CEST)Passo Rolle, Italy (16021): wind direction: 23.09.2020 03:00:00 - 29.09.2020 03:00:00 (CEST)Passo Rolle, Italy (16021): visibility: 23.09.2020 03:00:00 - 29.09.2020 03:00:00 (CEST)
Date & Time tt [°C] td [°C] ff [km/h] ff [kn] dd vv [km]
29.09.2020 03:00:00 - - - - - -
29.09.2020 02:00:00 - - - - - -
29.09.2020 01:00:00 - - - - - -
29.09.2020 00:00:00 - - - - - -
28.09.2020 23:00:00 1,2 -2,7 18 10 WNW 15
28.09.2020 22:00:00 - - - - - -
28.09.2020 21:00:00 - - - - - -
28.09.2020 20:00:00 2,4 0,1 11 6 WNW 15
28.09.2020 19:00:00 3,0 1,0 8 4 N 10
28.09.2020 18:00:00 4,0 2,0 9 5 WNW 10
28.09.2020 17:00:00 3,6 1,2 5 3 NNW 8
28.09.2020 16:00:00 3,0 1,0 11 6 WNW 6
28.09.2020 15:00:00 2,0 0,0 9 5 NW 0,6
28.09.2020 14:00:00 1,8 -0,3 15 8 WNW 0,2
28.09.2020 13:00:00 1,0 -1,0 15 8 WNW 0,1
28.09.2020 12:00:00 1,0 -1,0 18 10 W 0,1
28.09.2020 11:00:00 1,0 -1,4 21 11 W 0,1
28.09.2020 10:00:00 1,0 -1,0 21 11 W 0,1
28.09.2020 09:00:00 1,0 0,0 24 13 W 0,1
28.09.2020 08:00:00 0,8 -1,4 28 15 W 0,1
28.09.2020 07:00:00 1,0 -1,0 16 9 WNW 0,2
28.09.2020 06:00:00 1,0 -1,0 15 8 NW 0,2
28.09.2020 05:00:00 1,2 -0,4 18 10 WNW 0,2
28.09.2020 04:00:00 - - - - - -
28.09.2020 03:00:00 - - - - - -
28.09.2020 02:00:00 2,0 0,2 15 8 WNW 0,2
28.09.2020 01:00:00 - - - - - -
28.09.2020 00:00:00 - - - - - -
27.09.2020 23:00:00 2,6 -2,7 28 15 WNW 10
27.09.2020 22:00:00 - - - - - -
27.09.2020 21:00:00 - - - - - -
27.09.2020 20:00:00 2,0 1,0 15 8 NW 10
27.09.2020 19:00:00 2,0 0,0 13 7 SE 10
27.09.2020 18:00:00 3,0 2,0 15 8 ESE 10
27.09.2020 17:00:00 2,6 -0,5 13 7 SE 20
27.09.2020 16:00:00 4,0 -1,0 9 5 SE 10
27.09.2020 15:00:00 4,0 2,0 4 2 NW 10
27.09.2020 14:00:00 4,0 -1,2 21 11 SE 20
27.09.2020 13:00:00 4,0 -2,0 18 10 SE 10
27.09.2020 12:00:00 4,0 -1,0 15 8 SE 10
27.09.2020 11:00:00 3,0 -1,9 22 12 SE 50
27.09.2020 10:00:00 1,0 0,0 18 10 SE 10
27.09.2020 09:00:00 0,0 -2,0 16 9 SE 10
27.09.2020 08:00:00 -0,2 -5,6 13 7 ESE 72
27.09.2020 07:00:00 0,0 -5,0 11 6 ESE 10
27.09.2020 06:00:00 0,0 -7,0 13 7 SE 10
27.09.2020 05:00:00 0,6 -7,2 9 5 ESE 10
27.09.2020 04:00:00 - - - - - -
27.09.2020 03:00:00 - - - - - -
27.09.2020 02:00:00 0,8 -7,2 8 4 NNW 10
27.09.2020 01:00:00 - - - - - -
27.09.2020 00:00:00 - - - - - -
26.09.2020 23:00:00 1,2 -4,9 11 6 N 10
26.09.2020 22:00:00 - - - - - -
26.09.2020 21:00:00 - - - - - -
26.09.2020 20:00:00 1,4 -5,3 9 5 N 10
26.09.2020 19:00:00 2,0 -6,0 15 8 NW 10
26.09.2020 18:00:00 3,0 -5,0 5 3 S 10
26.09.2020 17:00:00 2,8 -4,2 5 3 N 50
26.09.2020 16:00:00 3,0 -5,0 15 8 W 10
26.09.2020 15:00:00 4,0 -6,0 16 9 WNW 10
26.09.2020 14:00:00 4,4 -8,3 22 12 NNW 20
26.09.2020 13:00:00 4,0 -9,0 24 13 NNW 10
26.09.2020 12:00:00 4,0 -8,0 34 18 NNW 10
26.09.2020 11:00:00 3,0 -7,2 31 17 NNW 20
26.09.2020 10:00:00 2,0 -8,0 35 19 NNW 10
26.09.2020 09:00:00 2,0 -9,0 22 12 NNW 10
26.09.2020 08:00:00 2,0 -8,7 28 15 NNW 10
26.09.2020 07:00:00 2,0 -7,0 31 17 NNW 8
26.09.2020 06:00:00 2,0 -8,0 39 21 NNW 3,0
26.09.2020 05:00:00 1,8 -7,5 35 19 NNW 0,9
26.09.2020 04:00:00 - - - - - -
26.09.2020 03:00:00 - - - - - -
26.09.2020 02:00:00 1,0 -3,9 26 14 NW 0,9
26.09.2020 01:00:00 - - - - - -
26.09.2020 00:00:00 - - - - - -
25.09.2020 23:00:00 0,2 -2,0 18 10 WNW 0,9
25.09.2020 22:00:00 - - - - - -
25.09.2020 21:00:00 - - - - - -
25.09.2020 20:00:00 0,2 -1,9 22 12 W 0,2
25.09.2020 19:00:00 0,0 -2,0 22 12 W 0,2
25.09.2020 18:00:00 4,0 2,0 15 8 WSW 0,2
25.09.2020 17:00:00 6,0 3,7 22 12 S 0,4
25.09.2020 16:00:00 6,0 4,0 15 8 S 0,9
25.09.2020 15:00:00 7,0 4,0 11 6 S 0,2
25.09.2020 14:00:00 6,8 4,5 18 10 SSE 0,9
25.09.2020 13:00:00 7,0 4,0 31 17 SSW 0,2
25.09.2020 12:00:00 8,0 5,0 16 9 SE 0,2
25.09.2020 11:00:00 7,8 5,1 13 7 SE 0,8
25.09.2020 10:00:00 7,0 5,0 13 7 S 3,0
25.09.2020 09:00:00 7,0 5,0 16 9 SSW 6
25.09.2020 08:00:00 6,8 4,3 15 8 SSE 0,4
25.09.2020 07:00:00 7,0 4,0 16 9 SSE 0,9
25.09.2020 06:00:00 7,0 5,0 13 7 S 0,4
25.09.2020 05:00:00 7,2 4,5 15 8 S 0,4
25.09.2020 04:00:00 - - - - - -
25.09.2020 03:00:00 - - - - - -
25.09.2020 02:00:00 7,4 5,0 18 10 S 0,4
25.09.2020 01:00:00 - - - - - -
25.09.2020 00:00:00 - - - - - -
24.09.2020 23:00:00 7,4 5,0 16 9 SSE 0,4
24.09.2020 22:00:00 - - - - - -
24.09.2020 21:00:00 - - - - - -
24.09.2020 20:00:00 8,2 6,2 15 8 SSE 0,4
24.09.2020 19:00:00 8,0 6,0 11 6 S 0,4
24.09.2020 18:00:00 8,0 6,0 16 9 SSE 0,9
24.09.2020 17:00:00 8,4 6,5 21 11 SSE 0,9
24.09.2020 16:00:00 9,0 7,0 11 6 S 0,9
24.09.2020 15:00:00 9,0 8,0 21 11 SE 0,9
24.09.2020 14:00:00 10,8 7,7 15 8 SE 20
24.09.2020 13:00:00 10,0 7,0 18 10 SE 10
24.09.2020 12:00:00 - - - - - -
24.09.2020 11:00:00 10,0 7,1 15 8 SE 20
24.09.2020 10:00:00 - - - - - -
24.09.2020 09:00:00 - - - - - -
24.09.2020 08:00:00 7,6 5,7 9 5 NNE 12
24.09.2020 07:00:00 - - - - - -
24.09.2020 06:00:00 - - - - - -
24.09.2020 05:00:00 7,6 5,7 4 2 NNE 0,6
24.09.2020 04:00:00 - - - - - -
24.09.2020 03:00:00 - - - - - -
24.09.2020 02:00:00 8,0 6,5 4 2 N 0,3
24.09.2020 01:00:00 - - - - - -
24.09.2020 00:00:00 - - - - - -
23.09.2020 23:00:00 8,2 6,8 4 2 N -
23.09.2020 22:00:00 - - - - - -
23.09.2020 21:00:00 - - - - - -
23.09.2020 20:00:00 8,0 6,5 5 3 NNW 0,9
23.09.2020 19:00:00 8,0 7,0 5 3 NNW 1,2
23.09.2020 18:00:00 8,0 7,0 9 5 NNW 2,0
23.09.2020 17:00:00 8,8 6,6 8 4 NW 4,0
23.09.2020 16:00:00 - - - - - -
23.09.2020 15:00:00 10,0 7,0 5 3 WNW 4,0
23.09.2020 14:00:00 9,4 7,5 4 2 W 0,6
23.09.2020 13:00:00 10,0 7,0 11 6 SSE 0,6
23.09.2020 12:00:00 9,0 6,0 8 4 WSW 0,9
23.09.2020 11:00:00 8,4 6,5 8 4 WSW 0,9
23.09.2020 10:00:00 8,0 6,0 8 4 WNW 0,9
23.09.2020 09:00:00 8,0 6,0 5 3 WNW 0,9
23.09.2020 08:00:00 8,2 6,3 11 6 NNW 0,9
23.09.2020 07:00:00 8,0 7,0 9 5 NNW 0,9
23.09.2020 06:00:00 - - - - - -
23.09.2020 05:00:00 8,4 6,5 8 4 N 0,9
23.09.2020 04:00:00 - - - - - -
23.09.2020 03:00:00 - - - - - -

tt = temperature
td = dewpoint
ff = wind speed
dd = wind direction
vv = visibility

Next stations